Terminal Aerodrome Forecast
Issued by NWS Sioux Falls, SD

Home | Current Version | Previous Version | Text Only | Print | Product List | Glossary On
Versions: 1 2 3 4 5 6 7 8 9 10 11 12 13 14 15 16 17 18 19
997
FTUS43 KFSD 282320
TAFFSD
TAF
KFSD 282320Z 2900/2924 09009KT P6SM FEW050 BKN150
     FM290600 09006KT P6SM OVC100
     FM291800 09011KT P6SM OVC045
     FM292200 09012KT P6SM OVC025=

USA.gov is the U.S. government's official web portal to all federal, state and local government web resources and services.